Pagina principale
METAR-TAF:

METAR-TAF

Aeroporti :

Aeroporto di Torino-Caselle

Torino, Italia

latitudine: 45-13N, longitudine: 007-39E, altezza: 301 m

Osservazione

Il bollettino è stato emesso 26 minuti fa, alle 21:50 UTC
Vento 3 kt da nord, variando fra nord-ovest e nord-est
Temperature 20°C
Umidità 83%
Pressione 1022 hPa
Visibilità 10 km o più
nessuna nube inferiore a 1500 m e nessun cumulonembo

METAR: LIMF 222150Z 35003KT 310V050 CAVOK 20/17 Q1022

Ora: 00:16 (22:16 UTC)

Previsione

Il bollettino è stato emesso 5 ore e 16 minuti fa, alle 17:00 UTC
Previsione valida dal 22 alle 18 UTC al 23 alle 18 UTC
Vento 5 kt da direzioni variabili
Visibilità 10 km o più
nessuna nube inferiore a 1500 m e nessun cumulonembo
Temporaneamente
dal 23 alle 10 UTC al 23 alle 17 UTC
temporale, pioggia

TAF: LIMF 221700Z 2218/2318 VRB05KT CAVOK TEMPO 2310/2317 TSRA

Osservazioni e previsioni meteorologiche di più di 4000 aeroporti (messaggi METAR e TAF).

Le stazioni disponibili sono rappresentate dai dischi gialli e rossi sulla carta.

Puntare il mouse per vedere il nome della stazione.

Clicca sopra per visualizzare le osservazioni e previsioni meteorologiche.

Per cambiare la mappa : fare clic sui pulsanti verdi con una croce nera per ingrandire, il pulsante verde con un trattino per diminuire, o sulla freccia verde per le mappe adiacenti.


METAR-TAF: